createdAt,value
2023-01-25T00:00:51.859Z,2.80
2023-01-25T00:03:19.297Z,2.80
2023-01-25T00:05:47.530Z,2.80
2023-01-25T00:08:14.749Z,2.80
2023-01-25T00:10:41.888Z,2.70
2023-01-25T00:13:09.131Z,2.70
2023-01-25T00:15:36.366Z,2.70
2023-01-25T00:18:03.608Z,2.80
2023-01-25T00:20:32.178Z,2.70
2023-01-25T00:23:00.761Z,2.70
2023-01-25T00:25:27.931Z,2.70
2023-01-25T00:27:55.033Z,2.70
2023-01-25T00:30:22.211Z,2.70
2023-01-25T00:33:07.775Z,2.60
2023-01-25T00:35:35.027Z,2.70
2023-01-25T00:38:06.597Z,2.70
2023-01-25T00:40:33.732Z,2.70
2023-01-25T00:43:01.271Z,2.60
2023-01-25T00:45:28.550Z,2.60
2023-01-25T00:47:56.525Z,2.70
2023-01-25T00:50:23.822Z,2.60
2023-01-25T00:52:51.019Z,2.60
2023-01-25T00:55:18.190Z,2.60
2023-01-25T00:57:45.386Z,2.60
2023-01-25T01:00:13.177Z,2.60
2023-01-25T01:02:40.635Z,2.60
2023-01-25T01:05:09.149Z,2.60
2023-01-25T01:07:36.724Z,2.60
2023-01-25T01:10:04.911Z,2.60
2023-01-25T01:12:33.444Z,2.60
2023-01-25T01:15:00.720Z,2.50
2023-01-25T01:17:28.168Z,2.50
2023-01-25T01:19:55.378Z,2.50
2023-01-25T01:22:22.613Z,2.50
2023-01-25T01:24:49.794Z,2.50
2023-01-25T01:27:16.958Z,2.50
2023-01-25T01:29:48.474Z,2.40
2023-01-25T01:32:15.888Z,2.40
2023-01-25T01:34:43.885Z,2.40
2023-01-25T01:37:11.128Z,2.40
2023-01-25T01:39:38.276Z,2.30
2023-01-25T01:42:05.526Z,2.40
2023-01-25T01:44:52.131Z,2.30
2023-01-25T01:47:22.218Z,2.40
2023-01-25T01:49:55.616Z,2.30
2023-01-25T01:52:31.098Z,2.30
2023-01-25T01:55:19.392Z,2.30
2023-01-25T01:57:55.988Z,2.30
2023-01-25T02:00:31.195Z,2.30
2023-01-25T02:02:59.124Z,2.30
2023-01-25T02:05:36.796Z,2.30
2023-01-25T02:08:06.383Z,2.30
2023-01-25T02:10:36.788Z,2.30
2023-01-25T02:13:03.951Z,2.30
2023-01-25T02:15:44.873Z,2.40
2023-01-25T02:18:13.381Z,2.30
2023-01-25T02:20:43.370Z,2.30
2023-01-25T02:23:26.914Z,2.30
2023-01-25T02:25:56.377Z,2.30
2023-01-25T02:28:45.793Z,2.30
2023-01-25T02:31:13.086Z,2.40
2023-01-25T02:33:42.365Z,2.40
2023-01-25T02:36:09.579Z,2.40
2023-01-25T02:38:43.489Z,2.40
2023-01-25T02:41:18.250Z,2.40
2023-01-25T02:43:45.460Z,2.40
2023-01-25T02:46:33.957Z,2.40
2023-01-25T02:49:01.815Z,2.40
2023-01-25T02:51:32.699Z,2.40
2023-01-25T02:54:00.573Z,2.40
2023-01-25T02:56:28.145Z,2.40
2023-01-25T02:58:55.446Z,2.40
2023-01-25T03:01:22.982Z,2.40
2023-01-25T03:03:50.370Z,2.40
2023-01-25T03:06:17.618Z,2.40
2023-01-25T03:08:45.746Z,2.40
2023-01-25T03:11:12.983Z,2.40
2023-01-25T03:13:40.244Z,2.40
2023-01-25T03:16:10.333Z,2.40
2023-01-25T03:18:38.518Z,2.40
2023-01-25T03:21:14.113Z,2.40
2023-01-25T03:23:42.568Z,2.40
2023-01-25T03:26:13.029Z,2.40
2023-01-25T03:28:41.401Z,2.40
2023-01-25T03:31:10.465Z,2.40
2023-01-25T03:33:38.457Z,2.40
2023-01-25T03:36:06.484Z,2.40
2023-01-25T03:38:34.589Z,2.40
2023-01-25T03:41:02.598Z,2.30
2023-01-25T03:43:30.348Z,2.30
2023-01-25T03:46:00.364Z,2.30
2023-01-25T03:48:28.691Z,2.30
2023-01-25T03:50:58.136Z,2.30
2023-01-25T03:53:29.940Z,2.30
2023-01-25T03:56:09.349Z,2.20
2023-01-25T03:58:39.868Z,2.30
2023-01-25T04:01:08.482Z,2.20
2023-01-25T04:03:35.945Z,2.20
2023-01-25T04:06:03.843Z,2.20
2023-01-25T04:08:31.553Z,2.20
2023-01-25T04:11:04.666Z,2.20
2023-01-25T04:13:35.213Z,2.20
2023-01-25T04:16:04.369Z,2.20
2023-01-25T04:18:31.781Z,2.20
2023-01-25T04:20:59.269Z,2.20
2023-01-25T04:23:27.137Z,2.20
2023-01-25T04:25:54.704Z,2.20
2023-01-25T04:28:22.412Z,2.20
2023-01-25T04:30:49.894Z,2.20
2023-01-25T04:33:17.100Z,2.20
2023-01-25T04:35:44.983Z,2.10
2023-01-25T04:38:12.950Z,2.10
2023-01-25T04:40:40.723Z,2.10
2023-01-25T04:43:07.885Z,2.20
2023-01-25T04:45:36.449Z,2.20
2023-01-25T04:48:05.748Z,2.20
2023-01-25T04:50:33.093Z,2.10
2023-01-25T04:53:02.072Z,2.10
2023-01-25T04:55:31.060Z,2.20
2023-01-25T04:58:00.207Z,2.20
2023-01-25T05:00:28.176Z,2.20
2023-01-25T05:02:55.725Z,2.10
2023-01-25T05:05:22.937Z,2.10
2023-01-25T05:07:50.088Z,2.10
2023-01-25T05:10:17.587Z,2.10
2023-01-25T05:12:44.760Z,2.10
2023-01-25T05:15:12.342Z,2.10
2023-01-25T05:17:39.634Z,2.10
2023-01-25T05:20:07.163Z,2.10
2023-01-25T05:22:34.351Z,2.10
2023-01-25T05:25:02.975Z,2.00
2023-01-25T05:27:30.246Z,2.00
2023-01-25T05:29:57.918Z,2.10
2023-01-25T05:32:25.170Z,2.10
2023-01-25T05:34:53.879Z,2.10
2023-01-25T05:37:21.679Z,2.20
2023-01-25T05:39:49.186Z,2.20
2023-01-25T05:42:18.949Z,2.20
2023-01-25T05:44:47.757Z,2.20
2023-01-25T05:47:17.279Z,2.20
2023-01-25T05:49:45.841Z,2.20
2023-01-25T05:52:14.955Z,2.20
2023-01-25T05:54:42.111Z,2.20
2023-01-25T05:57:09.480Z,2.30
2023-01-25T05:59:36.714Z,2.20
2023-01-25T06:02:03.925Z,2.20
2023-01-25T06:04:31.152Z,2.20
2023-01-25T06:06:58.381Z,2.20
2023-01-25T06:09:27.054Z,2.20
2023-01-25T06:11:54.396Z,2.20
2023-01-25T06:14:23.914Z,2.20
2023-01-25T06:16:51.091Z,2.20
2023-01-25T06:19:19.208Z,2.20
2023-01-25T06:21:48.581Z,2.20
2023-01-25T06:24:15.852Z,2.20
2023-01-25T06:26:42.997Z,2.20
2023-01-25T06:29:10.264Z,2.20
2023-01-25T06:31:37.743Z,2.20
2023-01-25T06:34:06.565Z,2.10
2023-01-25T06:36:34.353Z,2.10
2023-01-25T06:39:01.712Z,2.10
2023-01-25T06:41:29.310Z,2.20
2023-01-25T06:43:56.683Z,2.20
2023-01-25T06:46:23.932Z,2.20
2023-01-25T06:48:51.202Z,2.20
2023-01-25T06:51:18.856Z,2.20
2023-01-25T06:53:47.333Z,2.20
2023-01-25T06:56:20.823Z,2.20
2023-01-25T06:58:50.646Z,2.20
2023-01-25T07:01:27.045Z,2.20
2023-01-25T07:03:57.119Z,2.30
2023-01-25T07:06:28.828Z,2.30
2023-01-25T07:08:56.017Z,2.30
2023-01-25T07:11:23.307Z,2.40
2023-01-25T07:13:50.569Z,2.40
2023-01-25T07:16:20.024Z,2.50
2023-01-25T07:18:47.818Z,2.60
2023-01-25T07:21:17.883Z,2.60
2023-01-25T07:23:45.218Z,2.70
2023-01-25T07:26:17.692Z,2.80
2023-01-25T07:28:47.478Z,2.80
2023-01-25T07:31:16.965Z,2.80
2023-01-25T07:33:49.657Z,2.80
2023-01-25T07:36:16.970Z,2.80
2023-01-25T07:38:44.352Z,2.80
2023-01-25T07:41:11.851Z,2.80
2023-01-25T07:43:39.695Z,2.80
2023-01-25T07:46:13.387Z,2.90
2023-01-25T07:48:45.346Z,2.90
2023-01-25T07:51:12.946Z,2.90
2023-01-25T07:53:44.056Z,2.90
2023-01-25T07:56:12.603Z,3.00
2023-01-25T07:58:40.672Z,3.00
2023-01-25T08:01:14.581Z,3.00
2023-01-25T08:03:42.092Z,3.00
2023-01-25T08:06:11.326Z,3.10
2023-01-25T08:08:41.809Z,3.10
2023-01-25T08:11:16.143Z,3.10
2023-01-25T08:13:46.732Z,3.10
2023-01-25T08:16:15.098Z,3.20
2023-01-25T08:18:42.368Z,3.10
2023-01-25T08:21:10.220Z,3.10
2023-01-25T08:23:37.339Z,3.10
2023-01-25T08:26:10.073Z,3.10
2023-01-25T08:28:37.503Z,3.20
2023-01-25T08:31:05.739Z,3.30
2023-01-25T08:33:34.417Z,3.30
2023-01-25T08:36:02.869Z,3.30
2023-01-25T08:38:30.488Z,3.30
2023-01-25T08:41:24.899Z,3.40
2023-01-25T08:43:53.814Z,3.30
2023-01-25T08:46:26.636Z,3.40
2023-01-25T08:48:56.376Z,3.40
2023-01-25T08:51:26.133Z,3.40
2023-01-25T08:53:54.735Z,3.50
2023-01-25T08:56:21.889Z,3.60
2023-01-25T08:58:50.292Z,3.60
2023-01-25T09:01:19.265Z,3.60
2023-01-25T09:03:49.151Z,3.70
2023-01-25T09:06:20.399Z,3.70
2023-01-25T09:08:48.557Z,3.70
2023-01-25T09:11:23.112Z,3.80
2023-01-25T09:13:50.904Z,3.80
2023-01-25T09:16:28.454Z,3.90
2023-01-25T09:18:59.017Z,3.90
2023-01-25T09:21:26.929Z,4.00
2023-01-25T09:24:06.102Z,4.10
2023-01-25T09:26:38.381Z,4.10
2023-01-25T09:29:08.040Z,4.20
2023-01-25T09:31:40.425Z,4.30
2023-01-25T09:34:08.739Z,4.40
2023-01-25T09:36:39.282Z,4.40
2023-01-25T09:39:06.622Z,4.60
2023-01-25T09:42:15.750Z,4.50
2023-01-25T09:45:04.641Z,4.50
2023-01-25T09:48:02.621Z,4.40
2023-01-25T09:50:34.509Z,4.40
2023-01-25T09:53:04.808Z,4.50
2023-01-25T09:55:33.665Z,4.50
2023-01-25T09:58:02.906Z,4.60
2023-01-25T10:00:38.652Z,4.60
2023-01-25T10:03:25.578Z,4.50
2023-01-25T10:05:57.696Z,4.60
2023-01-25T10:08:39.503Z,4.60
2023-01-25T10:11:28.187Z,4.70
2023-01-25T10:13:57.735Z,4.80
2023-01-25T10:16:28.644Z,4.80
2023-01-25T10:19:23.225Z,4.80
2023-01-25T10:21:57.736Z,4.80
2023-01-25T10:24:43.572Z,4.70
2023-01-25T10:27:26.848Z,4.70
2023-01-25T10:29:57.893Z,4.70
2023-01-25T10:32:32.573Z,4.80
2023-01-25T10:35:29.277Z,4.80
2023-01-25T10:38:05.594Z,4.80
2023-01-25T10:40:43.209Z,4.80
2023-01-25T10:43:20.493Z,4.90
2023-01-25T10:45:50.214Z,4.80
2023-01-25T10:48:24.750Z,4.80
2023-01-25T10:50:57.436Z,4.80
2023-01-25T10:53:26.150Z,4.80
2023-01-25T10:56:03.319Z,4.90
2023-01-25T10:58:39.671Z,4.90
2023-01-25T11:01:11.436Z,4.80
2023-01-25T11:03:46.321Z,4.80
2023-01-25T11:06:14.847Z,4.90
2023-01-25T11:08:44.722Z,4.70
2023-01-25T11:11:26.071Z,4.70
2023-01-25T11:13:57.279Z,4.60
2023-01-25T11:16:39.844Z,4.60
2023-01-25T11:19:36.446Z,4.60
2023-01-25T11:22:24.290Z,4.60
2023-01-25T11:24:52.157Z,4.70
2023-01-25T11:27:21.906Z,4.80
2023-01-25T11:30:10.365Z,5.10
2023-01-25T11:32:41.581Z,5.20
2023-01-25T11:35:25.302Z,5.30
2023-01-25T11:37:55.160Z,5.20
2023-01-25T11:40:51.005Z,5.20
2023-01-25T11:44:00.528Z,5.30
2023-01-25T11:46:45.656Z,5.40
2023-01-25T11:49:15.730Z,5.50
2023-01-25T11:52:22.025Z,5.40
2023-01-25T11:54:57.624Z,5.30
2023-01-25T11:58:01.920Z,5.50
2023-01-25T12:01:02.786Z,5.50
2023-01-25T12:03:56.911Z,5.60
2023-01-25T12:06:55.304Z,5.50
2023-01-25T12:09:44.527Z,5.40
2023-01-25T12:12:45.230Z,5.40
2023-01-25T12:15:38.431Z,5.40
2023-01-25T12:18:22.281Z,5.30
2023-01-25T12:20:52.453Z,5.30
2023-01-25T12:23:28.599Z,5.30
2023-01-25T12:26:07.027Z,5.30
2023-01-25T12:28:39.728Z,5.20
2023-01-25T12:31:33.276Z,5.10
2023-01-25T12:34:04.880Z,5.00
2023-01-25T12:36:40.731Z,5.00
2023-01-25T12:39:18.251Z,5.10
2023-01-25T12:42:17.532Z,5.10
2023-01-25T12:44:52.634Z,5.10
2023-01-25T12:47:37.863Z,5.10
2023-01-25T12:50:13.680Z,5.00
2023-01-25T12:52:59.696Z,5.10
2023-01-25T12:55:27.810Z,5.10
2023-01-25T12:58:03.920Z,5.20
2023-01-25T13:00:37.277Z,5.20
2023-01-25T13:03:21.640Z,5.20
2023-01-25T13:05:53.754Z,5.20
2023-01-25T13:08:44.879Z,5.20
2023-01-25T13:11:19.395Z,5.20
2023-01-25T13:13:46.849Z,5.10
2023-01-25T13:16:29.042Z,5.10
2023-01-25T13:19:00.039Z,5.00
2023-01-25T13:21:46.081Z,4.90
2023-01-25T13:24:19.585Z,4.80
2023-01-25T13:26:49.028Z,4.60
2023-01-25T13:29:43.043Z,4.60
2023-01-25T13:32:34.783Z,4.50
2023-01-25T13:35:02.655Z,4.50
2023-01-25T13:37:36.494Z,4.50
2023-01-25T13:40:31.493Z,4.60
2023-01-25T13:43:17.854Z,4.60
2023-01-25T13:45:50.309Z,4.60
2023-01-25T13:48:27.800Z,4.60
2023-01-25T13:51:04.037Z,4.50
2023-01-25T13:53:35.463Z,4.40
2023-01-25T13:56:03.422Z,4.40
2023-01-25T13:58:46.358Z,4.40
2023-01-25T14:01:17.333Z,4.40
2023-01-25T14:03:50.840Z,4.40
2023-01-25T14:06:23.973Z,4.40
2023-01-25T14:08:53.336Z,4.40
2023-01-25T14:11:22.693Z,4.40
2023-01-25T14:14:25.173Z,4.40
2023-01-25T14:17:24.934Z,4.40
2023-01-25T14:19:56.186Z,4.30
2023-01-25T14:22:27.503Z,4.30
2023-01-25T14:25:14.055Z,4.30
2023-01-25T14:27:50.472Z,4.30
2023-01-25T14:30:44.075Z,4.30
2023-01-25T14:33:29.812Z,4.30
2023-01-25T14:36:16.313Z,4.30
2023-01-25T14:38:51.027Z,4.30
2023-01-25T14:41:48.904Z,4.40
2023-01-25T14:44:26.802Z,4.40
2023-01-25T14:47:31.069Z,4.30
2023-01-25T14:50:33.024Z,4.30
2023-01-25T14:53:26.674Z,4.30
2023-01-25T14:55:53.891Z,4.30
2023-01-25T14:58:25.277Z,4.20
2023-01-25T15:00:58.909Z,4.20
2023-01-25T15:03:27.403Z,4.20
2023-01-25T15:05:57.884Z,4.20
2023-01-25T15:08:35.747Z,4.10
2023-01-25T15:11:21.348Z,4.10
2023-01-25T15:13:48.658Z,4.10
2023-01-25T15:16:19.041Z,4.00
2023-01-25T15:18:54.462Z,4.00
2023-01-25T15:21:25.696Z,3.90
2023-01-25T15:23:55.054Z,3.90
2023-01-25T15:26:30.827Z,3.90
2023-01-25T15:29:03.189Z,3.90
2023-01-25T15:31:36.773Z,3.90
2023-01-25T15:34:04.813Z,4.00
2023-01-25T15:36:33.963Z,4.00
2023-01-25T15:39:01.153Z,3.90
2023-01-25T15:41:28.239Z,3.90
2023-01-25T15:43:55.363Z,3.90
2023-01-25T15:46:31.853Z,3.90
2023-01-25T15:48:59.951Z,3.90
2023-01-25T15:51:28.590Z,4.00
2023-01-25T15:53:55.858Z,3.90
2023-01-25T15:56:27.806Z,3.90
2023-01-25T15:59:01.590Z,3.80
2023-01-25T16:01:30.215Z,3.80
2023-01-25T16:03:58.832Z,3.80
2023-01-25T16:06:33.138Z,3.80
2023-01-25T16:09:01.889Z,3.90
2023-01-25T16:11:29.093Z,3.90
2023-01-25T16:13:57.994Z,3.90
2023-01-25T16:16:26.295Z,3.90
2023-01-25T16:18:53.635Z,3.90
2023-01-25T16:21:20.896Z,3.90
2023-01-25T16:23:48.172Z,3.90
2023-01-25T16:26:23.806Z,3.90
2023-01-25T16:28:51.058Z,3.80
2023-01-25T16:31:31.803Z,3.80
2023-01-25T16:34:01.111Z,3.80
2023-01-25T16:36:29.033Z,3.80
2023-01-25T16:38:56.358Z,3.80
2023-01-25T16:41:23.456Z,3.80
2023-01-25T16:43:53.591Z,3.80
2023-01-25T16:46:23.384Z,3.80
2023-01-25T16:48:54.968Z,3.80
2023-01-25T16:51:24.604Z,3.80
2023-01-25T16:53:54.003Z,3.80
2023-01-25T16:56:33.017Z,3.70
2023-01-25T16:59:05.715Z,3.70
2023-01-25T17:01:33.103Z,3.70
2023-01-25T17:04:00.388Z,3.70
2023-01-25T17:06:33.305Z,3.70
2023-01-25T17:09:20.572Z,3.70
2023-01-25T17:11:49.417Z,3.70
2023-01-25T17:14:19.069Z,3.70
2023-01-25T17:16:48.484Z,3.70
2023-01-25T17:19:17.121Z,3.70
2023-01-25T17:21:46.411Z,3.70
2023-01-25T17:24:16.177Z,3.60
2023-01-25T17:26:56.664Z,3.60
2023-01-25T17:29:24.573Z,3.60
2023-01-25T17:31:52.017Z,3.70
2023-01-25T17:34:21.987Z,3.60
2023-01-25T17:36:52.582Z,3.60
2023-01-25T17:39:20.675Z,3.60
2023-01-25T17:41:51.352Z,3.60
2023-01-25T17:44:21.084Z,3.60
2023-01-25T17:46:50.355Z,3.60
2023-01-25T17:49:19.600Z,3.60
2023-01-25T17:51:49.153Z,3.60
2023-01-25T17:54:16.562Z,3.60
2023-01-25T17:56:44.400Z,3.60
2023-01-25T17:59:11.941Z,3.60
2023-01-25T18:01:40.147Z,3.60
2023-01-25T18:04:17.903Z,3.60
2023-01-25T18:07:00.353Z,3.60
2023-01-25T18:13:04.812Z,3.60
2023-01-25T18:15:41.680Z,3.60
2023-01-25T18:18:22.455Z,3.60
2023-01-25T18:21:37.543Z,3.60
2023-01-25T18:24:28.173Z,3.60
2023-01-25T18:27:12.849Z,3.60
2023-01-25T18:30:21.701Z,3.60
2023-01-25T18:32:49.515Z,3.70
2023-01-25T18:35:17.107Z,3.70
2023-01-25T18:37:46.296Z,3.70
2023-01-25T18:40:14.394Z,3.70
2023-01-25T18:42:41.638Z,3.70
2023-01-25T18:45:09.653Z,3.70
2023-01-25T18:47:37.169Z,3.70
2023-01-25T18:50:04.992Z,3.70
2023-01-25T18:52:32.190Z,3.70
2023-01-25T18:54:59.400Z,3.70
2023-01-25T18:57:26.745Z,3.70
2023-01-25T18:59:54.572Z,3.70
2023-01-25T19:02:23.640Z,3.70
2023-01-25T19:04:50.904Z,3.70
2023-01-25T19:07:18.109Z,3.70
2023-01-25T19:09:45.350Z,3.70
2023-01-25T19:12:12.580Z,3.80
2023-01-25T19:14:39.904Z,3.80
2023-01-25T19:17:08.356Z,3.80
2023-01-25T19:19:35.686Z,3.90
2023-01-25T19:22:02.917Z,3.90
2023-01-25T19:24:30.950Z,3.90
2023-01-25T19:26:58.361Z,4.00
2023-01-25T19:29:25.658Z,4.00
2023-01-25T19:31:52.948Z,3.90
2023-01-25T19:34:21.847Z,4.00
2023-01-25T19:36:53.898Z,4.00
2023-01-25T19:39:21.265Z,4.00
2023-01-25T19:41:51.101Z,3.90
2023-01-25T19:44:18.293Z,4.00
2023-01-25T19:46:45.518Z,4.00
2023-01-25T19:49:16.172Z,4.00
2023-01-25T19:51:47.900Z,4.10
2023-01-25T19:54:17.708Z,4.10
2023-01-25T19:56:47.496Z,4.00
2023-01-25T19:59:20.640Z,4.00
2023-01-25T20:01:50.280Z,4.00
2023-01-25T20:04:20.367Z,4.00
2023-01-25T20:06:48.465Z,4.00
2023-01-25T20:09:51.568Z,4.00
2023-01-25T20:12:18.875Z,4.00
2023-01-25T20:14:46.121Z,4.00
2023-01-25T20:17:15.569Z,3.90
2023-01-25T20:19:44.094Z,3.90
2023-01-25T20:22:13.924Z,4.00
2023-01-25T20:24:41.081Z,3.90
2023-01-25T20:27:08.419Z,3.90
2023-01-25T20:29:35.591Z,3.90
2023-01-25T20:32:03.957Z,3.90
2023-01-25T20:34:31.152Z,3.90
2023-01-25T20:37:00.397Z,3.90
2023-01-25T20:39:27.615Z,3.90
2023-01-25T20:41:56.732Z,4.00
2023-01-25T20:44:30.067Z,4.00
2023-01-25T20:46:57.322Z,4.00
2023-01-25T20:49:26.870Z,4.00
2023-01-25T20:51:56.369Z,4.00
2023-01-25T20:54:23.760Z,4.00
2023-01-25T20:56:50.916Z,4.00
2023-01-25T20:59:19.411Z,4.00
2023-01-25T21:01:46.980Z,4.00
2023-01-25T21:04:14.192Z,4.00
2023-01-25T21:06:44.294Z,4.00
2023-01-25T21:09:12.616Z,4.00
2023-01-25T21:11:39.962Z,4.00
2023-01-25T21:14:07.220Z,4.00
2023-01-25T21:16:34.438Z,4.00
2023-01-25T21:19:06.041Z,4.00
2023-01-25T21:21:34.860Z,4.00
2023-01-25T21:24:04.793Z,4.00
2023-01-25T21:26:33.915Z,4.00
2023-01-25T21:29:02.291Z,4.00
2023-01-25T21:31:35.537Z,4.00
2023-01-25T21:34:03.926Z,4.00
2023-01-25T21:36:31.427Z,4.00
2023-01-25T21:38:58.905Z,4.00
2023-01-25T21:41:29.663Z,4.00
2023-01-25T21:44:17.502Z,4.00
2023-01-25T21:47:06.066Z,4.00
2023-01-25T21:49:51.435Z,4.00
2023-01-25T21:52:18.635Z,4.00
2023-01-25T21:54:45.806Z,3.90
2023-01-25T21:57:13.050Z,3.90
2023-01-25T21:59:40.995Z,3.90
2023-01-25T22:02:14.146Z,3.90
2023-01-25T22:04:41.589Z,3.90
2023-01-25T22:07:09.558Z,3.90
2023-01-25T22:09:36.810Z,3.90
2023-01-25T22:12:04.220Z,3.90
2023-01-25T22:14:31.387Z,3.90
2023-01-25T22:16:58.620Z,3.90
2023-01-25T22:19:26.247Z,3.90
2023-01-25T22:21:53.430Z,3.80
2023-01-25T22:24:20.949Z,3.80
2023-01-25T22:27:03.452Z,3.80
2023-01-25T22:29:33.337Z,3.70
2023-01-25T22:32:00.563Z,3.70
2023-01-25T22:34:27.697Z,3.70
2023-01-25T22:36:54.864Z,3.60
2023-01-25T22:39:22.077Z,3.60
2023-01-25T22:41:49.271Z,3.60
2023-01-25T22:44:16.650Z,3.70
2023-01-25T22:46:43.942Z,3.70
2023-01-25T22:49:11.052Z,3.70
2023-01-25T22:51:38.218Z,3.70
2023-01-25T22:54:05.627Z,3.70
2023-01-25T22:56:34.059Z,3.70
2023-01-25T22:59:02.079Z,3.70
2023-01-25T23:01:32.381Z,3.70
2023-01-25T23:04:01.910Z,3.70
2023-01-25T23:06:31.855Z,3.80
2023-01-25T23:09:01.781Z,3.80
2023-01-25T23:11:37.341Z,3.80
2023-01-25T23:14:30.111Z,3.80
2023-01-25T23:17:17.328Z,3.80
2023-01-25T23:19:45.029Z,3.80
2023-01-25T23:22:12.286Z,3.80
2023-01-25T23:24:39.455Z,3.90
2023-01-25T23:27:06.754Z,3.90
2023-01-25T23:29:34.021Z,3.90
2023-01-25T23:32:01.356Z,3.90
2023-01-25T23:34:34.636Z,3.90
2023-01-25T23:37:01.841Z,3.90
2023-01-25T23:39:29.055Z,3.90
2023-01-25T23:41:56.237Z,3.90
2023-01-25T23:44:23.399Z,3.90
2023-01-25T23:46:51.126Z,3.90
2023-01-25T23:49:18.505Z,3.90
2023-01-25T23:51:45.738Z,3.90
2023-01-25T23:54:13.059Z,3.90
2023-01-25T23:56:40.151Z,3.90
2023-01-25T23:59:08.184Z,3.90
